Bella Coola Airport
CYBD : now visible

Airfield :











YOU CAN JOIN US ON...

 
LOGIN :

Register | Disclaimer

   EN    FR    IT 

 









Legend :    VFR   Marginal VFR   IFR   Intensive IFR   Very Intensive IFR
Visi :
Ceiling :
>= 8 km
>= 3000ft
5 to 8 km
1000 to 3000 ft
1500m to 5 km
500 to 1000 ft
800 to 1500m
200 to 500 ft
< 800m
< 200 ft
Symbols :   Thunderstorms  Fog  Heavy snow  Heavy precipitations  Wind > 20 kt






- Airport Elevation : 117 ft
- IATA code : QBC


CYBD - Bella Coola

CURRENT METAR :
  • 162200Z 26011KT 15SM FEW035 BKN058 17/09 A3002 RMK SC2SC4 SLP170

EXPIRED METARs :
  • 162100Z 29005KT 240V320 15SM SCT030 BKN060 15/10 A3005 RMK SC3SC4 SLP177
  • 162049Z 28004KT 230V310 12SM SCT025 OVC054 15/09 A3005 RMK SC3SC5 SLP178
  • 162000Z 29004KT 260V330 10SM -RA SCT023 OVC058 13/10 A3006 RMK SC4SC4 SLP182
  • 161928Z 27005KT 220V330 10SM -RA SCT020 OVC053 13/09 A3006 RMK SC4SC4 SLP182
  • 161900Z 28003KT 240V330 15SM SCT023 OVC050 14/10 A3006 RMK SC4SC4 SLP182
  • 161800Z 30006KT 240V330 15SM SCT020 OVC056 13/10 A3007 RMK SC3SC5 SLP184
  • 161739Z 28007KT 250V330 15SM FEW020 OVC053 13/09 A3007 RMK SC2SC6 SLP186

TAF N/A
CZVR FIR / North America



MET'MAP, your aeronautical weather chart ! - Copyright ORBIFLY December 2007 - Disclaimer

ORBIFLY MET'MAP TEAM :

Programming & Development : Alexandra Zaïnal
Original concept : Baudouin d'Aumeries
Technical & hardware support : Manuel Goepfert
Assistance : Marc-Olivier Méhu




SOURCES & CREDITS :

   NOAA       Earth
Advisory